Terminal Aerodrome Forecast
Issued by NWS

Home | Current Version | Previous Version | Text Only | Print | Product List | Glossary On
Versions: 1 2 3 4 5 6 7 8 9 10 11 12
000
FTAK31 PAFA 252334
TAFAMC
TAF
PAMC 252334Z 2600/2624 VRB03KT P6SM VCTS SCT050CB SCT100
     FM260500 VRB03KT P6SM FEW050 SCT150
     FM262200 19007KT P6SM VCTS SCT070CB BKN120=

USA.gov is the U.S. government's official web portal to all federal, state and local government web resources and services.